Latest Weather Observations for Batchelor

IDD60801

Issued at 9:01 am CST Saturday 4 July 2015 (issued every 30 minutes, with the page automatically refreshed every 10 minutes)

About weather observations | Map of weather stations | Latest weather observations for NT | Other Formats
Station Details ID: 014272 Name: BATCHELOR AIRPORT Lat: -13.05 Lon: 131.03 Height: 104.0 m
Data from the previous 72 hours. | See also: Recent months at Batchelor
Date/Time
CST
Temp
°C
App
Temp
°C
Dew
Point
Rel
Hum
%
Delta-T
°C
Wind Press
QNH
hPa
Press
MSL
hPa
Rain
since 9 am
mm
Dir
 
Spd
km/h
Gust
km/h
Spd
kts
Gust
kts
04/09:00am 23.0 20.2 7.1 36 8.3 E 11 19 6 10 1016.3 1015.8 0.0
04/08:30am 21.8 19.4 6.9 38 7.7 ESE 9 17 5 9 1015.9 1015.4 0.0
04/08:00am 20.9 18.5 7.2 41 7.0 ESE 9 11 5 6 1015.5 1015.0 0.0
04/07:30am 19.7 17.0 7.4 45 6.3 ESE 11 15 6 8 1015.2 1014.7 0.0
04/07:00am 19.7 16.6 7.4 45 6.3 ESE 13 17 7 9 1014.9 1014.4 0.0
04/06:30am 20.2 16.7 7.2 43 6.7 ESE 15 20 8 11 1014.8 1014.3 0.0
04/06:00am 20.6 16.8 7.6 43 6.7 ESE 17 24 9 13 1014.7 1014.2 0.0
04/05:30am 20.2 17.2 7.9 45 6.4 ESE 13 17 7 9 1014.8 1014.3 0.0
04/05:00am 20.5 17.6 8.2 45 6.4 SE 13 15 7 8 1014.6 1014.1 0.0
04/04:30am 19.9 17.6 8.9 49 5.8 SE 11 13 6 7 1014.6 1014.1 0.0
04/04:00am 19.2 17.8 8.8 51 5.5 SE 6 7 3 4 1014.5 1014.0 0.0
04/03:30am 20.3 18.9 8.9 48 6.0 ESE 6 7 3 4 1014.5 1014.0 0.0
04/03:00am 20.2 18.7 9.2 49 5.8 SE 7 9 4 5 1014.6 1014.1 0.0
04/02:30am 20.9 19.5 9.5 48 6.1 SE 7 9 4 5 1014.8 1014.3 0.0
04/02:00am 21.4 19.9 9.3 46 6.5 SE 7 9 4 5 1015.0 1014.5 0.0
04/01:30am 22.0 20.1 9.2 44 6.9 ESE 9 13 5 7 1015.0 1014.5 0.0
04/01:00am 22.8 20.7 9.6 43 7.2 SE 11 17 6 9 1015.0 1014.5 0.0
04/12:30am 23.2 21.1 9.6 42 7.4 SE 11 17 6 9 1014.9 1014.4 0.0
04/12:00am 23.4 21.4 10.1 43 7.3 SE 11 15 6 8 1014.9 1014.4 0.0
 
Date/Time
CST
Temp
°C
App
Temp
°C
Dew
Point
Rel
Hum
%
Delta-T
°C
Wind Press
QNH
hPa
Press
MSL
hPa
Rain
since 9 am
mm
Dir
 
Spd
km/h
Gust
km/h
Spd
kts
Gust
kts
03/11:30pm 24.0 22.0 10.3 42 7.6 SE 11 15 6 8 1015.1 1014.6 0.0
03/11:00pm 24.1 22.6 10.4 42 7.6 SE 9 11 5 6 1015.2 1014.7 0.0
03/10:30pm 24.1 22.6 10.7 43 7.5 SE 9 15 5 8 1015.1 1014.6 0.0
03/10:00pm 24.7 23.2 10.6 41 7.9 SE 9 13 5 7 1015.0 1014.5 0.0
03/09:30pm 24.7 23.7 10.9 42 7.7 SE 7 13 4 7 1014.8 1014.3 0.0
03/09:00pm 24.9 24.1 11.1 42 7.8 SSE 6 9 3 5 1014.7 1014.2 0.0
03/08:30pm 25.3 24.4 10.7 40 8.2 SSE 6 9 3 5 1014.4 1013.9 0.0
03/08:00pm 26.0 25.0 10.2 37 8.8 SSE 6 7 3 4 1014.0 1013.5 0.0
03/07:30pm 26.8 25.4 9.6 34 9.5 SSE 7 9 4 5 1013.6 1013.1 0.0
03/07:00pm 27.5 26.0 9.3 32 10.1 SSE 7 9 4 5 1013.3 1012.8 0.0
03/06:30pm 28.5 26.3 9.2 30 10.7 SSE 11 19 6 10 1013.0 1012.5 0.0
03/06:00pm 29.5 26.3 8.5 27 11.6 SE 15 20 8 11 1012.5 1012.1 0.0
03/05:30pm 30.4 27.1 8.2 25 12.3 SE 15 20 8 11 1012.3 1011.9 0.0
03/05:00pm 30.8 27.1 7.9 24 12.6 ESE 17 26 9 14 1012.3 1011.9 0.0
03/04:30pm 31.1 28.2 8.2 24 12.7 SE 13 22 7 12 1012.3 1011.9 0.0
03/04:00pm 31.3 26.9 8.9 25 12.6 ESE 22 32 12 17 1012.3 1011.9 0.0
03/03:30pm 31.5 28.2 7.9 23 13.0 E 15 22 8 12 1012.5 1012.1 0.0
03/03:00pm 31.2 27.4 7.6 23 13.0 SE 17 26 9 14 1012.9 1012.4 0.0
03/02:30pm 31.0 27.7 8.1 24 12.7 ESE 15 28 8 15 1013.3 1012.8 0.0
03/02:00pm 30.7 27.1 8.4 25 12.4 ESE 17 28 9 15 1013.8 1013.3 0.0
03/01:30pm 30.6 27.4 10.0 28 11.7 ESE 17 28 9 15 1014.3 1013.8 0.0
03/01:00pm 30.5 26.9 10.5 29 11.5 E 20 30 11 16 1014.8 1014.3 0.0
03/12:30pm 29.8 26.4 11.3 32 10.7 ESE 20 32 11 17 1015.3 1014.8 0.0
03/12:00pm 29.4 25.7 11.5 33 10.4 E 22 32 12 17 1015.9 1015.4 0.0
03/11:30am 28.9 26.0 12.3 36 9.7 ENE 19 26 10 14 1016.4 1015.9 0.0
03/11:00am 28.8 26.5 13.1 38 9.3 ESE 17 30 9 16 1016.6 1016.1 0.0
03/10:30am 27.7 25.5 13.3 41 8.5 ESE 17 28 9 15 1016.8 1016.3 0.0
03/10:00am 26.9 25.1 13.3 43 8.0 ESE 15 24 8 13 1017.0 1016.5 0.0
03/09:30am 25.7 23.5 13.2 46 7.3 ESE 17 24 9 13 1017.2 1016.7 0.0
03/09:00am 24.9 22.6 13.1 48 6.9 SE 17 24 9 13 1017.2 1016.7 0.0
03/08:30am 23.9 22.7 12.8 49 6.4 SE 11 19 6 10 1017.2 1016.7 0.0
03/08:00am 22.3 22.0 13.4 57 5.2 SE 7 11 4 6 1016.9 1016.4 0.0
03/07:30am 19.8 19.8 13.7 68 3.5 SE 6 7 3 4 1016.6 1016.1 0.0
03/07:00am 19.0 19.6 14.3 74 2.7 ESE 4 6 2 3 1016.2 1015.7 0.0
03/06:30am 19.6 20.0 14.8 74 2.8 SE 6 6 3 3 1016.0 1015.5 0.0
03/06:00am 19.1 21.4 16.7 86 1.5 CALM 0 0 0 0 1015.7 1015.2 0.0
03/05:30am 19.6 21.9 16.8 84 1.7 CALM 0 0 0 0 1015.5 1015.0 0.0
03/05:00am 19.7 21.7 16.9 84 1.7 SSE 2 2 1 1 1015.5 1015.0 0.0
03/04:30am 19.9 21.7 16.5 81 2.1 SSE 2 4 1 2 1015.6 1015.1 0.0
03/04:00am 19.6 21.6 16.1 80 2.1 CALM 0 0 0 0 1015.7 1015.2 0.0
03/03:30am 19.3 21.1 15.6 79 2.2 CALM 0 2 0 1 1015.7 1015.2 0.0
03/03:00am 20.3 21.8 15.7 75 2.7 WSW 2 2 1 1 1015.8 1015.3 0.0
03/02:30am 19.9 20.9 15.3 75 2.7 WSW 4 4 2 2 1016.0 1015.5 0.0
03/02:00am 20.9 22.5 15.0 69 3.5 CALM 0 0 0 0 1016.3 1015.8 0.0
03/01:30am 20.9 22.5 15.0 69 3.5 CALM 0 0 0 0 1016.3 1015.8 0.0
03/01:00am 20.8 22.2 14.5 67 3.7 CALM 0 0 0 0 1016.3 1015.8 0.0
03/12:30am 20.9 21.9 14.3 66 3.9 WSW 2 2 1 1 1016.3 1015.8 0.0
03/12:00am 21.3 22.7 14.5 65 4.0 CALM 0 0 0 0 1016.4 1015.9 0.0
 
Date/Time
CST
Temp
°C
App
Temp
°C
Dew
Point
Rel
Hum
%
Delta-T
°C
Wind Press
QNH
hPa
Press
MSL
hPa
Rain
since 9 am
mm
Dir
 
Spd
km/h
Gust
km/h
Spd
kts
Gust
kts
02/11:30pm 21.8 23.2 14.4 63 4.3 CALM 0 2 0 1 1016.3 1015.8 0.0
02/11:00pm 23.1 24.0 14.1 57 5.3 WSW 2 4 1 2 1016.4 1015.9 0.0
02/10:30pm 23.2 23.8 14.2 57 5.3 NW 4 7 2 4 1016.5 1016.0 0.0
02/10:00pm 22.7 24.1 14.3 59 5.0 CALM 0 0 0 0 1016.3 1015.8 0.0
02/09:30pm 23.7 24.7 13.3 52 6.1 CALM 0 4 0 2 1016.0 1015.5 0.0
02/09:00pm 25.1 24.9 13.6 49 6.8 N 7 7 4 4 1015.6 1015.1 0.0
02/08:30pm 23.5 24.0 12.8 51 6.2 E 2 9 1 5 1015.4 1014.9 0.0
02/08:00pm 24.3 25.1 12.6 48 6.8 CALM 0 0 0 0 1014.9 1014.4 0.0
02/07:30pm 25.2 26.0 12.4 45 7.4 CALM 0 0 0 0 1014.4 1013.9 0.0
02/07:00pm 27.3 27.3 11.3 37 9.2 ESE 2 4 1 2 1013.9 1013.4 0.0
02/06:30pm 29.2 28.1 10.8 32 10.5 ESE 7 7 4 4 1013.6 1013.1 0.0
02/06:00pm 30.9 29.5 10.8 29 11.6 E 9 15 5 8 1013.3 1012.8 0.0
02/05:30pm 31.8 29.1 10.5 27 12.3 E 15 20 8 11 1013.0 1012.5 0.0
02/05:00pm 32.3 29.8 10.9 27 12.5 ESE 15 24 8 13 1012.9 1012.4 0.0
02/04:30pm 32.5 29.5 10.5 26 12.7 E 17 26 9 14 1012.8 1012.3 0.0
02/04:00pm 33.0 30.6 11.5 27 12.7 ESE 15 28 8 15 1012.6 1012.2 0.0
02/03:30pm 32.7 30.3 11.3 27 12.6 ENE 15 26 8 14 1012.9 1012.4 0.0
02/03:00pm 33.1 30.0 12.1 27 12.5 ESE 20 33 11 18 1013.3 1012.8 0.0
02/02:30pm 31.5 28.3 11.3 29 11.8 E 19 30 10 16 1013.9 1013.4 0.0
02/02:00pm 32.1 28.9 11.3 28 12.2 ESE 19 30 10 16 1014.5 1014.0 0.0
02/01:30pm 31.8 28.2 10.5 27 12.3 ENE 20 35 11 19 1015.0 1014.5 0.0
02/01:00pm 30.9 26.5 11.8 31 11.2 E 26 41 14 22 1015.7 1015.2 0.0
02/12:30pm 31.1 26.8 12.0 31 11.2 E 26 39 14 21 1016.1 1015.6 0.0
02/12:00pm 30.4 25.4 12.3 33 10.7 E 30 41 16 22 1016.7 1016.2 0.0
02/11:30am 30.1 26.0 13.8 37 9.8 E 28 41 15 22 1017.2 1016.7 0.0
02/11:00am 29.6 25.0 14.6 40 9.1 E 32 44 17 24 1017.6 1017.1 0.0
02/10:30am 28.9 25.2 15.1 43 8.4 E 28 39 15 21 1017.9 1017.4 0.0
02/10:00am 27.8 25.3 15.1 46 7.7 E 22 35 12 19 1018.2 1017.7 0.0
02/09:30am 27.1 24.8 15.8 50 6.9 E 22 33 12 18 1018.2 1017.7 0.0
02/09:00am 26.1 23.8 15.8 53 6.3 ESE 22 30 12 16 1018.2 1017.7 0.0
02/08:30am 25.9 25.1 16.2 55 6.0 ESE 15 20 8 11 1018.1 1017.6 0.0
02/08:00am 23.4 24.7 17.2 68 3.8 ESE 6 7 3 4 1017.9 1017.4 0.0
02/07:30am 21.2 23.5 16.8 76 2.7 CALM 0 2 0 1 1017.6 1017.1 0.0
02/07:00am 21.1 23.1 16.1 73 3.0 CALM 0 0 0 0 1017.3 1016.8 0.0
02/06:30am 22.0 23.9 15.8 68 3.7 CALM 0 0 0 0 1017.0 1016.5 0.0
02/06:00am 23.2 24.0 16.3 65 4.2 E 7 11 4 6 1016.8 1016.3 0.0
02/05:30am 23.6 24.0 16.4 64 4.4 E 9 15 5 8 1016.7 1016.2 0.0
02/05:00am 24.2 24.3 16.5 62 4.7 E 11 15 6 8 1016.5 1016.0 0.0
02/04:30am 24.2 25.5 17.0 64 4.5 E 6 9 3 5 1016.4 1015.9 0.0
02/04:00am 24.4 25.6 16.9 63 4.6 E 6 9 3 5 1016.4 1015.9 0.0
02/03:30am 24.5 25.4 16.7 61 4.8 ENE 7 11 4 6 1016.5 1016.0 0.0
02/03:00am 24.9 25.2 16.9 61 5.0 E 11 15 6 8 1016.5 1016.0 0.0
02/02:30am 25.2 25.8 16.9 60 5.1 E 9 13 5 7 1016.6 1016.1 0.0
02/02:00am 25.2 25.7 16.6 59 5.3 E 9 17 5 9 1016.8 1016.3 0.0
02/01:30am 25.3 25.7 16.2 57 5.6 ENE 9 15 5 8 1016.8 1016.3 0.0
02/01:00am 25.9 26.2 15.9 54 6.1 E 9 11 5 6 1016.9 1016.4 0.0
02/12:30am 26.1 25.8 15.5 52 6.5 ESE 11 15 6 8 1016.8 1016.3 0.0
02/12:00am 26.1 25.8 15.5 52 6.5 ESE 11 17 6 9 1016.9 1016.4 0.0
 
Date/Time
CST
Temp
°C
App
Temp
°C
Dew
Point
Rel
Hum
%
Delta-T
°C
Wind Press
QNH
hPa
Press
MSL
hPa
Rain
since 9 am
mm
Dir
 
Spd
km/h
Gust
km/h
Spd
kts
Gust
kts
01/11:30pm 26.4 25.6 15.1 49 6.8 ESE 13 19 7 10 1017.1 1016.6 0.0
01/11:00pm 26.4 25.6 15.1 49 6.9 ESE 13 17 7 9 1017.0 1016.5 0.0
01/10:30pm 25.5 25.8 14.6 51 6.5 ESE 6 9 3 5 1017.0 1016.5 0.0
01/10:00pm 25.6 25.9 14.4 50 6.7 ESE 6 7 3 4 1017.0 1016.5 0.0
01/09:30pm 26.1 25.7 14.2 48 7.1 ESE 9 15 5 8 1016.9 1016.4 0.0
01/09:00pm 25.1 25.2 13.9 49 6.6 ESE 6 9 3 5 1016.5 1016.0 0.0
01/08:30pm 25.9 25.9 14.1 48 7.0 ESE 7 9 4 5 1016.1 1015.6 0.0
01/08:00pm 27.2 26.7 13.9 44 7.9 ESE 9 13 5 7 1015.5 1015.0 0.0
01/07:30pm 27.7 26.8 13.6 42 8.4 ESE 11 15 6 8 1015.1 1014.6 0.0
01/07:00pm 28.0 27.2 12.8 39 8.9 ESE 9 13 5 7 1014.8 1014.3 0.0
01/06:30pm 29.0 26.5 12.4 36 9.7 ESE 17 22 9 12 1014.6 1014.1 0.0
01/06:00pm 30.0 28.3 12.4 34 10.4 SE 13 20 7 11 1014.3 1013.8 0.0
01/05:30pm 30.6 28.5 12.5 33 10.7 ESE 15 20 8 11 1014.2 1013.7 0.0
01/05:00pm 31.1 28.3 11.5 30 11.5 E 17 28 9 15 1014.1 1013.6 0.0
01/04:30pm 30.3 27.5 13.1 34 10.3 ESE 20 30 11 16 1014.1 1013.6 0.0
01/04:00pm 32.4 30.3 13.6 32 11.4 ESE 17 35 9 19 1013.9 1013.4 0.0
01/03:30pm 32.7 30.4 12.9 30 11.9 ESE 17 28 9 15 1013.8 1013.3 0.0
01/03:00pm 32.5 29.7 12.7 30 11.9 ESE 19 30 10 16 1013.9 1013.4 0.0
01/02:30pm 31.5 29.0 12.3 31 11.4 E 17 26 9 14 1014.4 1013.9 0.0
01/02:00pm 30.8 27.8 12.7 33 10.8 SE 20 30 11 16 1014.9 1014.4 0.0
01/01:30pm 31.7 29.0 13.0 32 11.2 E 19 28 10 15 1015.5 1015.0 0.0
01/01:00pm 31.3 28.9 12.6 31 11.1 ESE 17 28 9 15 1016.2 1015.7 0.0
01/12:30pm 30.5 27.7 13.3 35 10.3 ESE 20 30 11 16 1017.0 1016.5 0.0
01/12:00pm 31.1 28.7 13.8 34 10.5 E 19 30 10 16 1017.6 1017.1 0.0
01/11:30am 29.9 27.4 13.6 36 9.8 E 19 28 10 15 1018.0 1017.5 0.0
01/11:00am 29.4 28.1 13.6 38 9.5 E 13 22 7 12 1018.5 1018.0 0.0
01/10:30am 28.0 26.5 13.1 39 8.8 ESE 13 17 7 9 1018.9 1018.4 0.0
01/10:00am 27.4 26.0 13.4 42 8.3 ESE 13 19 7 10 1019.1 1018.6 0.0
01/09:30am 25.9 23.5 12.7 44 7.7 ESE 17 22 9 12 1019.1 1018.6 0.0

Other Formats:

Comma delimited format used in spreadsheet applications
http://www.bom.gov.au/fwo/IDD60801/IDD60801.94125.axf

JavaScript Object Notation format (JSON) in row-major order
http://www.bom.gov.au/fwo/IDD60801/IDD60801.94125.json